sensor_id;sensor_type;location;lat;lon;timestamp;pressure;altitude;pressure_sealevel;temperature;humidity
18652;BME280;9455;54.302;10.124;2023-11-18T00:00:34;102348.09;;;5.25;100.00
18652;BME280;9455;54.302;10.124;2023-11-18T00:03:00;102348.28;;;5.20;100.00
18652;BME280;9455;54.302;10.124;2023-11-18T00:05:27;102342.22;;;5.18;100.00
18652;BME280;9455;54.302;10.124;2023-11-18T00:07:53;102349.31;;;5.16;100.00
18652;BME280;9455;54.302;10.124;2023-11-18T00:10:20;102350.53;;;5.08;100.00
18652;BME280;9455;54.302;10.124;2023-11-18T00:12:48;102346.69;;;5.16;100.00
18652;BME280;9455;54.302;10.124;2023-11-18T00:15:15;102343.22;;;5.14;100.00
18652;BME280;9455;54.302;10.124;2023-11-18T00:17:41;102347.34;;;5.21;100.00
18652;BME280;9455;54.302;10.124;2023-11-18T00:20:09;102337.16;;;5.12;100.00
18652;BME280;9455;54.302;10.124;2023-11-18T00:22:37;102342.66;;;5.06;100.00
18652;BME280;9455;54.302;10.124;2023-11-18T00:25:05;102342.22;;;5.18;100.00
18652;BME280;9455;54.302;10.124;2023-11-18T00:27:33;102334.44;;;5.14;100.00
18652;BME280;9455;54.302;10.124;2023-11-18T00:30:03;102337.16;;;5.34;100.00
18652;BME280;9455;54.302;10.124;2023-11-18T00:32:33;102343.03;;;5.19;100.00
18652;BME280;9455;54.302;10.124;2023-11-18T00:35:00;102339.00;;;5.32;100.00
18652;BME280;9455;54.302;10.124;2023-11-18T00:37:29;102349.75;;;5.27;100.00
18652;BME280;9455;54.302;10.124;2023-11-18T00:39:56;102342.63;;;5.29;100.00
18652;BME280;9455;54.302;10.124;2023-11-18T00:42:23;102345.22;;;5.31;100.00
18652;BME280;9455;54.302;10.124;2023-11-18T00:44:49;102340.84;;;5.30;100.00
18652;BME280;9455;54.302;10.124;2023-11-18T00:47:17;102341.28;;;5.19;100.00
18652;BME280;9455;54.302;10.124;2023-11-18T00:49:44;102342.25;;;5.17;100.00
18652;BME280;9455;54.302;10.124;2023-11-18T00:52:10;102332.28;;;5.23;100.00
18652;BME280;9455;54.302;10.124;2023-11-18T00:54:37;102336.78;;;5.21;100.00
18652;BME280;9455;54.302;10.124;2023-11-18T00:57:04;102328.06;;;5.19;100.00
18652;BME280;9455;54.302;10.124;2023-11-18T00:59:30;102335.88;;;5.22;100.00
18652;BME280;9455;54.302;10.124;2023-11-18T01:01:57;102334.75;;;5.28;100.00
18652;BME280;9455;54.302;10.124;2023-11-18T01:04:25;102329.88;;;5.17;100.00
18652;BME280;9455;54.302;10.124;2023-11-18T01:06:52;102326.13;;;5.23;100.00
18652;BME280;9455;54.302;10.124;2023-11-18T01:09:18;102329.03;;;5.17;100.00
18652;BME280;9455;54.302;10.124;2023-11-18T01:11:45;102326.13;;;5.23;100.00
18652;BME280;9455;54.302;10.124;2023-11-18T01:14:11;102326.31;;;4.97;100.00
18652;BME280;9455;54.302;10.124;2023-11-18T01:16:38;102338.44;;;5.02;100.00
18652;BME280;9455;54.302;10.124;2023-11-18T01:19:04;102341.06;;;5.02;100.00
18652;BME280;9455;54.302;10.124;2023-11-18T01:21:35;102337.00;;;4.94;100.00
18652;BME280;9455;54.302;10.124;2023-11-18T01:24:03;102337.28;;;4.86;100.00
18652;BME280;9455;54.302;10.124;2023-11-18T01:26:31;102335.47;;;4.65;100.00
18652;BME280;9455;54.302;10.124;2023-11-18T01:28:57;102329.97;;;4.71;100.00
18652;BME280;9455;54.302;10.124;2023-11-18T01:31:24;102325.06;;;4.61;100.00
18652;BME280;9455;54.302;10.124;2023-11-18T01:33:52;102325.59;;;4.47;100.00
18652;BME280;9455;54.302;10.124;2023-11-18T01:36:21;102332.19;;;4.36;100.00
18652;BME280;9455;54.302;10.124;2023-11-18T01:38:49;102340.75;;;4.42;100.00
18652;BME280;9455;54.302;10.124;2023-11-18T01:41:16;102333.97;;;4.35;100.00
18652;BME280;9455;54.302;10.124;2023-11-18T01:43:45;102338.16;;;4.41;100.00
18652;BME280;9455;54.302;10.124;2023-11-18T01:46:12;102336.38;;;4.41;100.00
18652;BME280;9455;54.302;10.124;2023-11-18T01:48:40;102335.22;;;4.25;100.00
18652;BME280;9455;54.302;10.124;2023-11-18T01:51:08;102329.84;;;4.28;100.00
18652;BME280;9455;54.302;10.124;2023-11-18T01:53:37;102333.25;;;4.30;100.00
18652;BME280;9455;54.302;10.124;2023-11-18T01:56:07;102330.38;;;4.13;100.00
18652;BME280;9455;54.302;10.124;2023-11-18T01:58:34;102328.53;;;4.15;100.00
18652;BME280;9455;54.302;10.124;2023-11-18T02:01:01;102335.44;;;4.19;100.00
18652;BME280;9455;54.302;10.124;2023-11-18T02:03:28;102339.50;;;4.03;100.00
18652;BME280;9455;54.302;10.124;2023-11-18T02:05:56;102338.88;;;3.97;100.00
18652;BME280;9455;54.302;10.124;2023-11-18T02:08:23;102336.97;;;4.00;100.00
18652;BME280;9455;54.302;10.124;2023-11-18T02:10:55;102336.59;;;3.86;100.00
18652;BME280;9455;54.302;10.124;2023-11-18T02:13:29;102344.59;;;3.85;100.00
18652;BME280;9455;54.302;10.124;2023-11-18T02:15:57;102350.63;;;3.88;100.00
18652;BME280;9455;54.302;10.124;2023-11-18T02:18:26;102354.19;;;3.87;100.00
18652;BME280;9455;54.302;10.124;2023-11-18T02:20:56;102345.44;;;3.85;100.00
18652;BME280;9455;54.302;10.124;2023-11-18T02:23:23;102347.47;;;3.77;100.00
18652;BME280;9455;54.302;10.124;2023-11-18T02:25:53;102354.28;;;3.84;100.00
18652;BME280;9455;54.302;10.124;2023-11-18T02:28:20;102361.88;;;3.67;100.00
18652;BME280;9455;54.302;10.124;2023-11-18T02:30:48;102365.81;;;3.82;100.00
18652;BME280;9455;54.302;10.124;2023-11-18T02:33:22;102365.44;;;3.66;100.00
18652;BME280;9455;54.302;10.124;2023-11-18T02:35:53;102360.91;;;3.70;100.00
18652;BME280;9455;54.302;10.124;2023-11-18T02:38:22;102364.94;;;3.81;100.00
18652;BME280;9455;54.302;10.124;2023-11-18T02:40:56;102366.16;;;3.71;100.00
18652;BME280;9455;54.302;10.124;2023-11-18T02:43:24;102360.78;;;3.74;100.00
18652;BME280;9455;54.302;10.124;2023-11-18T02:45:54;102362.34;;;3.80;100.00
18652;BME280;9455;54.302;10.124;2023-11-18T02:48:22;102373.88;;;3.77;100.00
18652;BME280;9455;54.302;10.124;2023-11-18T02:50:49;102360.66;;;3.51;100.00
18652;BME280;9455;54.302;10.124;2023-11-18T02:53:15;102358.47;;;3.64;100.00
18652;BME280;9455;54.302;10.124;2023-11-18T02:55:42;102361.28;;;3.59;100.00
18652;BME280;9455;54.302;10.124;2023-11-18T02:58:10;102364.47;;;3.69;100.00
18652;BME280;9455;54.302;10.124;2023-11-18T03:00:36;102357.63;;;3.63;100.00
18652;BME280;9455;54.302;10.124;2023-11-18T03:03:04;102370.50;;;3.72;100.00
18652;BME280;9455;54.302;10.124;2023-11-18T03:05:30;102373.41;;;3.65;100.00
18652;BME280;9455;54.302;10.124;2023-11-18T03:07:57;102367.97;;;3.43;100.00
18652;BME280;9455;54.302;10.124;2023-11-18T03:10:24;102368.47;;;3.54;100.00
18652;BME280;9455;54.302;10.124;2023-11-18T03:12:51;102367.25;;;3.64;100.00
18652;BME280;9455;54.302;10.124;2023-11-18T03:15:20;102362.75;;;3.68;100.00
18652;BME280;9455;54.302;10.124;2023-11-18T03:17:48;102370.41;;;3.75;100.00
18652;BME280;9455;54.302;10.124;2023-11-18T03:20:15;102359.66;;;3.81;100.00
18652;BME280;9455;54.302;10.124;2023-11-18T03:22:42;102368.59;;;3.77;100.00
18652;BME280;9455;54.302;10.124;2023-11-18T03:25:10;102369.72;;;3.95;100.00
18652;BME280;9455;54.302;10.124;2023-11-18T03:27:37;102376.19;;;3.86;100.00
18652;BME280;9455;54.302;10.124;2023-11-18T03:30:06;102373.66;;;3.83;100.00
18652;BME280;9455;54.302;10.124;2023-11-18T03:32:34;102378.16;;;3.80;100.00
18652;BME280;9455;54.302;10.124;2023-11-18T03:35:02;102375.81;;;3.71;100.00
18652;BME280;9455;54.302;10.124;2023-11-18T03:37:30;102373.03;;;3.75;100.00
18652;BME280;9455;54.302;10.124;2023-11-18T03:39:56;102366.41;;;3.90;100.00
18652;BME280;9455;54.302;10.124;2023-11-18T03:42:23;102369.19;;;3.59;100.00
18652;BME280;9455;54.302;10.124;2023-11-18T03:44:49;102371.91;;;3.82;100.00
18652;BME280;9455;54.302;10.124;2023-11-18T03:47:16;102369.97;;;3.89;100.00
18652;BME280;9455;54.302;10.124;2023-11-18T03:49:44;102375.38;;;3.84;100.00
18652;BME280;9455;54.302;10.124;2023-11-18T03:52:10;102371.19;;;4.03;100.00
18652;BME280;9455;54.302;10.124;2023-11-18T03:54:37;102367.75;;;4.01;100.00
18652;BME280;9455;54.302;10.124;2023-11-18T03:57:04;102372.31;;;3.96;100.00
18652;BME280;9455;54.302;10.124;2023-11-18T03:59:31;102378.69;;;4.15;100.00
18652;BME280;9455;54.302;10.124;2023-11-18T04:01:57;102382.78;;;3.99;100.00
18652;BME280;9455;54.302;10.124;2023-11-18T04:04:24;102381.44;;;4.12;100.00
18652;BME280;9455;54.302;10.124;2023-11-18T04:06:52;102400.22;;;4.03;100.00
18652;BME280;9455;54.302;10.124;2023-11-18T04:09:18;102396.69;;;4.04;100.00
18652;BME280;9455;54.302;10.124;2023-11-18T04:11:45;102395.81;;;4.04;100.00
18652;BME280;9455;54.302;10.124;2023-11-18T04:14:11;102405.34;;;4.08;100.00
18652;BME280;9455;54.302;10.124;2023-11-18T04:16:38;102403.09;;;3.97;100.00
18652;BME280;9455;54.302;10.124;2023-11-18T04:19:04;102392.78;;;3.90;100.00
18652;BME280;9455;54.302;10.124;2023-11-18T04:21:31;102401.69;;;3.87;100.00
18652;BME280;9455;54.302;10.124;2023-11-18T04:23:59;102390.16;;;3.90;100.00
18652;BME280;9455;54.302;10.124;2023-11-18T04:26:26;102392.59;;;3.96;100.00
18652;BME280;9455;54.302;10.124;2023-11-18T04:28:52;102393.13;;;4.05;100.00
18652;BME280;9455;54.302;10.124;2023-11-18T04:31:19;102384.56;;;3.99;100.00
18652;BME280;9455;54.302;10.124;2023-11-18T04:33:46;102381.16;;;3.95;100.00
18652;BME280;9455;54.302;10.124;2023-11-18T04:36:13;102376.81;;;4.19;100.00
18652;BME280;9455;54.302;10.124;2023-11-18T04:38:41;102380.03;;;4.02;100.00
18652;BME280;9455;54.302;10.124;2023-11-18T04:41:10;102379.53;;;3.91;100.00
18652;BME280;9455;54.302;10.124;2023-11-18T04:43:36;102377.50;;;3.99;100.00
18652;BME280;9455;54.302;10.124;2023-11-18T04:46:04;102375.94;;;3.94;100.00
18652;BME280;9455;54.302;10.124;2023-11-18T04:48:30;102374.13;;;3.96;100.00
18652;BME280;9455;54.302;10.124;2023-11-18T04:50:58;102369.84;;;4.16;100.00
18652;BME280;9455;54.302;10.124;2023-11-18T04:53:25;102381.97;;;4.22;100.00
18652;BME280;9455;54.302;10.124;2023-11-18T04:55:51;102373.91;;;4.26;100.00
18652;BME280;9455;54.302;10.124;2023-11-18T04:58:20;102377.19;;;4.33;100.00
18652;BME280;9455;54.302;10.124;2023-11-18T05:00:46;102378.53;;;4.20;100.00
18652;BME280;9455;54.302;10.124;2023-11-18T05:03:13;102381.00;;;4.24;100.00
18652;BME280;9455;54.302;10.124;2023-11-18T05:05:40;102373.09;;;4.24;100.00
18652;BME280;9455;54.302;10.124;2023-11-18T05:08:07;102378.03;;;4.33;100.00
18652;BME280;9455;54.302;10.124;2023-11-18T05:10:34;102371.84;;;4.34;100.00
18652;BME280;9455;54.302;10.124;2023-11-18T05:13:02;102376.59;;;4.25;100.00
18652;BME280;9455;54.302;10.124;2023-11-18T05:15:30;102377.19;;;4.33;100.00
18652;BME280;9455;54.302;10.124;2023-11-18T05:17:57;102373.13;;;4.23;100.00
18652;BME280;9455;54.302;10.124;2023-11-18T05:20:23;102369.53;;;4.25;100.00
18652;BME280;9455;54.302;10.124;2023-11-18T05:22:50;102372.25;;;4.24;100.00
18652;BME280;9455;54.302;10.124;2023-11-18T05:25:17;102371.31;;;4.25;100.00
18652;BME280;9455;54.302;10.124;2023-11-18T05:27:44;102373.13;;;4.23;100.00
18652;BME280;9455;54.302;10.124;2023-11-18T05:30:11;102361.78;;;4.21;100.00
18652;BME280;9455;54.302;10.124;2023-11-18T05:32:39;102360.00;;;4.21;100.00
18652;BME280;9455;54.302;10.124;2023-11-18T05:35:06;102359.88;;;4.24;100.00
18652;BME280;9455;54.302;10.124;2023-11-18T05:37:36;102357.63;;;4.14;100.00
18652;BME280;9455;54.302;10.124;2023-11-18T05:40:04;102356.66;;;4.16;100.00
18652;BME280;9455;54.302;10.124;2023-11-18T05:42:32;102349.19;;;4.04;100.00
18652;BME280;9455;54.302;10.124;2023-11-18T05:45:01;102340.34;;;4.05;100.00
18652;BME280;9455;54.302;10.124;2023-11-18T05:47:28;102344.16;;;3.97;100.00
18652;BME280;9455;54.302;10.124;2023-11-18T05:49:56;102342.38;;;4.22;100.00
18652;BME280;9455;54.302;10.124;2023-11-18T05:52:22;102339.41;;;4.31;100.00
18652;BME280;9455;54.302;10.124;2023-11-18T05:54:49;102342.13;;;4.29;100.00
18652;BME280;9455;54.302;10.124;2023-11-18T05:57:16;102337.88;;;4.25;100.00
18652;BME280;9455;54.302;10.124;2023-11-18T05:59:43;102331.13;;;4.17;100.00
18652;BME280;9455;54.302;10.124;2023-11-18T06:02:09;102335.75;;;4.35;100.00
18652;BME280;9455;54.302;10.124;2023-11-18T06:04:38;102333.16;;;4.33;100.00
18652;BME280;9455;54.302;10.124;2023-11-18T06:07:06;102332.69;;;4.45;100.00
18652;BME280;9455;54.302;10.124;2023-11-18T06:09:33;102332.41;;;4.30;100.00
18652;BME280;9455;54.302;10.124;2023-11-18T06:12:00;102336.84;;;4.29;100.00
18652;BME280;9455;54.302;10.124;2023-11-18T06:14:27;102334.56;;;4.43;100.00
18652;BME280;9455;54.302;10.124;2023-11-18T06:16:54;102332.84;;;4.42;100.00
18652;BME280;9455;54.302;10.124;2023-11-18T06:19:20;102326.16;;;4.32;100.00
18652;BME280;9455;54.302;10.124;2023-11-18T06:21:47;102333.16;;;4.33;100.00
18652;BME280;9455;54.302;10.124;2023-11-18T06:24:16;102328.41;;;4.43;100.00
18652;BME280;9455;54.302;10.124;2023-11-18T06:26:44;102328.44;;;4.18;100.00
18652;BME280;9455;54.302;10.124;2023-11-18T06:29:10;102336.88;;;4.28;100.00
18652;BME280;9455;54.302;10.124;2023-11-18T06:31:37;102340.97;;;4.36;100.00
18652;BME280;9455;54.302;10.124;2023-11-18T06:34:03;102340.88;;;4.39;100.00
18652;BME280;9455;54.302;10.124;2023-11-18T06:36:30;102347.03;;;4.38;100.00
18652;BME280;9455;54.302;10.124;2023-11-18T06:38:56;102347.19;;;4.35;100.00
18652;BME280;9455;54.302;10.124;2023-11-18T06:41:25;102352.47;;;4.35;100.00
18652;BME280;9455;54.302;10.124;2023-11-18T06:43:59;102350.50;;;4.40;100.00
18652;BME280;9455;54.302;10.124;2023-11-18T06:46:29;102352.47;;;4.35;100.00
18652;BME280;9455;54.302;10.124;2023-11-18T06:48:59;102359.66;;;4.30;100.00
18652;BME280;9455;54.302;10.124;2023-11-18T06:51:29;102358.22;;;4.22;100.00
18652;BME280;9455;54.302;10.124;2023-11-18T06:53:57;102354.81;;;4.43;100.00
18652;BME280;9455;54.302;10.124;2023-11-18T06:56:25;102360.53;;;4.31;100.00
18652;BME280;9455;54.302;10.124;2023-11-18T06:58:52;102359.66;;;4.30;100.00
18652;BME280;9455;54.302;10.124;2023-11-18T07:01:20;102356.09;;;4.31;100.00
18652;BME280;9455;54.302;10.124;2023-11-18T07:03:48;102362.16;;;4.35;100.00
18652;BME280;9455;54.302;10.124;2023-11-18T07:06:18;102361.16;;;4.37;100.00
18652;BME280;9455;54.302;10.124;2023-11-18T07:08:47;102362.88;;;4.38;100.00
18652;BME280;9455;54.302;10.124;2023-11-18T07:11:14;102359.97;;;4.46;100.00
18652;BME280;9455;54.302;10.124;2023-11-18T07:13:43;102352.09;;;4.44;100.00
18652;BME280;9455;54.302;10.124;2023-11-18T07:16:10;102359.88;;;4.24;100.00
18652;BME280;9455;54.302;10.124;2023-11-18T07:18:37;102353.53;;;4.30;100.00
18652;BME280;9455;54.302;10.124;2023-11-18T07:21:04;102349.81;;;4.35;100.00
18652;BME280;9455;54.302;10.124;2023-11-18T07:23:31;102353.16;;;4.16;100.00
18652;BME280;9455;54.302;10.124;2023-11-18T07:25:58;102358.22;;;4.22;100.00
18652;BME280;9455;54.302;10.124;2023-11-18T07:28:24;102368.50;;;4.05;100.00
18652;BME280;9455;54.302;10.124;2023-11-18T07:30:53;102382.03;;;3.96;100.00
18652;BME280;9455;54.302;10.124;2023-11-18T07:33:20;102388.09;;;3.98;100.00
18652;BME280;9455;54.302;10.124;2023-11-18T07:35:47;102387.53;;;4.14;100.00
18652;BME280;9455;54.302;10.124;2023-11-18T07:38:14;102394.09;;;4.03;100.00
18652;BME280;9455;54.302;10.124;2023-11-18T07:40:41;102389.75;;;3.76;100.00
18652;BME280;9455;54.302;10.124;2023-11-18T07:43:11;102400.66;;;3.91;100.00
18652;BME280;9455;54.302;10.124;2023-11-18T07:45:37;102391.63;;;3.98;100.00
18652;BME280;9455;54.302;10.124;2023-11-18T07:48:06;102402.16;;;3.98;100.00
18652;BME280;9455;54.302;10.124;2023-11-18T07:50:34;102393.19;;;4.04;100.00
18652;BME280;9455;54.302;10.124;2023-11-18T07:53:00;102383.09;;;4.15;100.00
18652;BME280;9455;54.302;10.124;2023-11-18T07:55:27;102394.66;;;4.12;100.00
18652;BME280;9455;54.302;10.124;2023-11-18T07:57:54;102394.19;;;4.24;100.00
18652;BME280;9455;54.302;10.124;2023-11-18T08:00:21;102399.97;;;4.11;100.00
18652;BME280;9455;54.302;10.124;2023-11-18T08:02:49;102390.06;;;4.17;100.00
18652;BME280;9455;54.302;10.124;2023-11-18T08:05:18;102384.56;;;4.23;100.00
18652;BME280;9455;54.302;10.124;2023-11-18T08:07:45;102380.81;;;4.06;100.00
18652;BME280;9455;54.302;10.124;2023-11-18T08:10:11;102382.03;;;4.20;100.00
18652;BME280;9455;54.302;10.124;2023-11-18T08:12:39;102375.28;;;4.12;100.00
18652;BME280;9455;54.302;10.124;2023-11-18T08:15:06;102367.84;;;4.23;100.00
18652;BME280;9455;54.302;10.124;2023-11-18T08:17:34;102368.50;;;4.05;100.00
18652;BME280;9455;54.302;10.124;2023-11-18T08:20:01;102378.38;;;4.00;100.00
18652;BME280;9455;54.302;10.124;2023-11-18T08:22:33;102381.53;;;4.09;100.00
18652;BME280;9455;54.302;10.124;2023-11-18T08:25:00;102389.53;;;4.08;100.00
18652;BME280;9455;54.302;10.124;2023-11-18T08:27:27;102401.53;;;4.16;100.00
18652;BME280;9455;54.302;10.124;2023-11-18T08:29:53;102391.75;;;4.20;100.00
18652;BME280;9455;54.302;10.124;2023-11-18T08:32:20;102402.25;;;4.21;100.00
18652;BME280;9455;54.302;10.124;2023-11-18T08:34:50;102392.69;;;4.17;100.00
18652;BME280;9455;54.302;10.124;2023-11-18T08:37:17;102399.63;;;4.21;100.00
18652;BME280;9455;54.302;10.124;2023-11-18T08:39:44;102396.53;;;4.33;100.00
18652;BME280;9455;54.302;10.124;2023-11-18T08:42:11;102387.88;;;4.30;100.00
18652;BME280;9455;54.302;10.124;2023-11-18T08:44:40;102382.84;;;4.22;100.00
18652;BME280;9455;54.302;10.124;2023-11-18T08:47:08;102370.44;;;4.24;100.00
18652;BME280;9455;54.302;10.124;2023-11-18T08:49:37;102365.16;;;4.24;100.00
18652;BME280;9455;54.302;10.124;2023-11-18T08:52:05;102362.53;;;4.24;100.00
18652;BME280;9455;54.302;10.124;2023-11-18T08:54:35;102359.81;;;4.26;100.00
18652;BME280;9455;54.302;10.124;2023-11-18T08:57:05;102350.78;;;4.33;100.00
18652;BME280;9455;54.302;10.124;2023-11-18T08:59:49;102346.72;;;4.23;100.00
18652;BME280;9455;54.302;10.124;2023-11-18T09:02:17;102354.91;;;4.17;100.00
18652;BME280;9455;54.302;10.124;2023-11-18T09:04:48;102370.75;;;4.40;100.00
18652;BME280;9455;54.302;10.124;2023-11-18T09:07:15;102369.25;;;4.33;100.00
18652;BME280;9455;54.302;10.124;2023-11-18T09:09:41;102377.59;;;4.45;100.00
18652;BME280;9455;54.302;10.124;2023-11-18T09:12:11;102379.88;;;4.31;100.00
18652;BME280;9455;54.302;10.124;2023-11-18T09:14:40;102372.66;;;4.36;100.00
18652;BME280;9455;54.302;10.124;2023-11-18T09:17:08;102381.84;;;4.00;100.00
18652;BME280;9455;54.302;10.124;2023-11-18T09:19:35;102380.97;;;4.01;100.00
18652;BME280;9455;54.302;10.124;2023-11-18T09:22:02;102373.31;;;4.18;100.00
18652;BME280;9455;54.302;10.124;2023-11-18T09:24:30;102370.88;;;4.12;100.00
18652;BME280;9455;54.302;10.124;2023-11-18T09:26:58;102373.44;;;4.15;100.00
18652;BME280;9455;54.302;10.124;2023-11-18T09:29:26;102368.94;;;4.17;100.00
18652;BME280;9455;54.302;10.124;2023-11-18T09:31:53;102369.91;;;4.39;100.00
18652;BME280;9455;54.302;10.124;2023-11-18T09:34:19;102368.81;;;4.20;100.00
18652;BME280;9455;54.302;10.124;2023-11-18T09:36:53;102364.84;;;4.33;100.00
18652;BME280;9455;54.302;10.124;2023-11-18T09:39:20;102366.13;;;4.46;100.00
18652;BME280;9455;54.302;10.124;2023-11-18T09:42:04;102358.16;;;4.48;100.00
18652;BME280;9455;54.302;10.124;2023-11-18T09:44:36;102363.38;;;4.49;100.00
18652;BME280;9455;54.302;10.124;2023-11-18T09:47:04;102356.84;;;4.59;100.00
18652;BME280;9455;54.302;10.124;2023-11-18T09:49:40;102355.13;;;4.81;100.00
18652;BME280;9455;54.302;10.124;2023-11-18T09:52:07;102343.63;;;4.82;100.00
18652;BME280;9455;54.302;10.124;2023-11-18T09:54:39;102338.13;;;5.10;100.00
18652;BME280;9455;54.302;10.124;2023-11-18T09:57:15;102343.50;;;5.08;100.00
18652;BME280;9455;54.302;10.124;2023-11-18T09:59:49;102344.16;;;5.35;100.00
18652;BME280;9455;54.302;10.124;2023-11-18T10:02:20;102340.53;;;5.37;100.00
18652;BME280;9455;54.302;10.124;2023-11-18T10:04:49;102338.00;;;5.34;100.00
18652;BME280;9455;54.302;10.124;2023-11-18T10:07:23;102341.06;;;5.45;100.00
18652;BME280;9455;54.302;10.124;2023-11-18T10:09:53;102337.25;;;5.52;100.00
18652;BME280;9455;54.302;10.124;2023-11-18T10:12:22;102329.84;;;5.40;100.00
18652;BME280;9455;54.302;10.124;2023-11-18T10:14:53;102327.66;;;5.28;100.00
18652;BME280;9455;54.302;10.124;2023-11-18T10:17:22;102321.34;;;5.32;100.00
18652;BME280;9455;54.302;10.124;2023-11-18T10:19:52;102315.00;;;5.15;100.00
18652;BME280;9455;54.302;10.124;2023-11-18T10:22:24;102317.28;;;5.02;100.00
18652;BME280;9455;54.302;10.124;2023-11-18T10:24:51;102309.00;;;5.11;100.00
18652;BME280;9455;54.302;10.124;2023-11-18T10:27:20;102305.13;;;4.98;100.00
18652;BME280;9455;54.302;10.124;2023-11-18T10:29:48;102302.09;;;5.07;100.00
18652;BME280;9455;54.302;10.124;2023-11-18T10:32:17;102303.13;;;5.03;100.00
18652;BME280;9455;54.302;10.124;2023-11-18T10:34:47;102294.97;;;5.09;100.00
18652;BME280;9455;54.302;10.124;2023-11-18T10:37:15;102297.25;;;5.18;100.00
18652;BME280;9455;54.302;10.124;2023-11-18T10:39:46;102285.75;;;5.19;100.00
18652;BME280;9455;54.302;10.124;2023-11-18T10:42:13;102294.09;;;5.30;100.00
18652;BME280;9455;54.302;10.124;2023-11-18T10:44:54;102288.63;;;5.35;100.00
18652;BME280;9455;54.302;10.124;2023-11-18T10:47:24;102294.69;;;5.37;100.00
18652;BME280;9455;54.302;10.124;2023-11-18T10:49:52;102286.63;;;5.40;100.00
18652;BME280;9455;54.302;10.124;2023-11-18T10:52:19;102280.16;;;5.47;100.00
18652;BME280;9455;54.302;10.124;2023-11-18T10:54:50;102266.22;;;5.43;100.00
18652;BME280;9455;54.302;10.124;2023-11-18T10:57:19;102262.78;;;5.41;100.00
18652;BME280;9455;54.302;10.124;2023-11-18T10:59:58;102265.25;;;5.66;100.00
18652;BME280;9455;54.302;10.124;2023-11-18T11:02:30;102254.75;;;5.85;100.00
18652;BME280;9455;54.302;10.124;2023-11-18T11:05:00;102254.41;;;5.72;100.00
18652;BME280;9455;54.302;10.124;2023-11-18T11:07:27;102247.13;;;5.77;100.00
18652;BME280;9455;54.302;10.124;2023-11-18T11:09:55;102240.59;;;5.86;100.00
18652;BME280;9455;54.302;10.124;2023-11-18T11:12:23;102232.66;;;5.86;100.00
18652;BME280;9455;54.302;10.124;2023-11-18T11:14:57;102236.75;;;5.93;100.00
18652;BME280;9455;54.302;10.124;2023-11-18T11:17:27;102243.88;;;5.91;100.00
18652;BME280;9455;54.302;10.124;2023-11-18T11:20:05;102237.88;;;5.87;100.00
18652;BME280;9455;54.302;10.124;2023-11-18T11:22:48;102237.13;;;5.84;100.00
18652;BME280;9455;54.302;10.124;2023-11-18T11:25:22;102232.78;;;5.83;100.00
18652;BME280;9455;54.302;10.124;2023-11-18T11:27:57;102231.31;;;5.96;100.00
18652;BME280;9455;54.302;10.124;2023-11-18T11:30:28;102221.44;;;5.99;100.00
18652;BME280;9455;54.302;10.124;2023-11-18T11:33:04;102218.31;;;6.10;100.00
18652;BME280;9455;54.302;10.124;2023-11-18T11:35:40;102212.59;;;6.19;100.00
18652;BME280;9455;54.302;10.124;2023-11-18T11:38:12;102207.38;;;6.54;100.00
18652;BME280;9455;54.302;10.124;2023-11-18T11:40:41;102202.13;;;6.71;100.00
18652;BME280;9455;54.302;10.124;2023-11-18T11:43:09;102197.47;;;6.76;100.00
18652;BME280;9455;54.302;10.124;2023-11-18T11:45:37;102204.13;;;6.85;100.00
18652;BME280;9455;54.302;10.124;2023-11-18T11:48:07;102179.41;;;6.84;100.00
18652;BME280;9455;54.302;10.124;2023-11-18T11:51:00;102177.25;;;6.74;100.00
18652;BME280;9455;54.302;10.124;2023-11-18T11:53:33;102185.81;;;6.62;100.00
18652;BME280;9455;54.302;10.124;2023-11-18T11:56:02;102190.78;;;6.51;100.00
18652;BME280;9455;54.302;10.124;2023-11-18T11:58:34;102179.38;;;6.49;100.00
18652;BME280;9455;54.302;10.124;2023-11-18T12:01:15;102180.31;;;6.48;100.00
18652;BME280;9455;54.302;10.124;2023-11-18T12:03:46;102167.81;;;6.33;100.00
18652;BME280;9455;54.302;10.124;2023-11-18T12:06:13;102166.78;;;6.35;100.00
18652;BME280;9455;54.302;10.124;2023-11-18T12:08:41;102166.06;;;6.32;100.00
18652;BME280;9455;54.302;10.124;2023-11-18T12:11:09;102176.38;;;6.38;100.00
18652;BME280;9455;54.302;10.124;2023-11-18T12:13:38;102164.34;;;6.31;100.00
18652;BME280;9455;54.302;10.124;2023-11-18T12:16:09;102155.03;;;6.41;100.00
18652;BME280;9455;54.302;10.124;2023-11-18T12:18:40;102160.06;;;6.47;100.00
18652;BME280;9455;54.302;10.124;2023-11-18T12:21:10;102166.94;;;6.51;100.00
18652;BME280;9455;54.302;10.124;2023-11-18T12:24:15;102160.06;;;6.47;100.00
18652;BME280;9455;54.302;10.124;2023-11-18T12:26:46;102168.28;;;6.59;100.00
18652;BME280;9455;54.302;10.124;2023-11-18T12:29:30;102162.09;;;6.59;100.00
18652;BME280;9455;54.302;10.124;2023-11-18T12:31:57;102162.19;;;6.57;100.00
18652;BME280;9455;54.302;10.124;2023-11-18T12:34:24;102154.41;;;6.71;100.00
18652;BME280;9455;54.302;10.124;2023-11-18T12:37:22;102152.50;;;6.75;100.00
18652;BME280;9455;54.302;10.124;2023-11-18T12:40:42;102154.13;;;6.77;100.00
18652;BME280;9455;54.302;10.124;2023-11-18T12:43:16;102167.75;;;6.70;100.00
18652;BME280;9455;54.302;10.124;2023-11-18T12:49:02;102148.72;;;6.62;100.00
18652;BME280;9455;54.302;10.124;2023-11-18T12:51:30;102141.88;;;6.75;100.00
18652;BME280;9455;54.302;10.124;2023-11-18T12:54:01;102132.38;;;6.71;100.00
18652;BME280;9455;54.302;10.124;2023-11-18T12:56:28;102136.50;;;6.76;100.00
18652;BME280;9455;54.302;10.124;2023-11-18T12:58:55;102135.03;;;6.71;100.00
18652;BME280;9455;54.302;10.124;2023-11-18T13:01:22;102133.53;;;6.82;100.00